createdAt,value
2024-02-21T00:00:35.959Z,97812.91
2024-02-21T00:03:03.523Z,97798.72
2024-02-21T00:05:30.388Z,97805.75
2024-02-21T00:07:57.214Z,97796.84
2024-02-21T00:10:23.954Z,97807.19
2024-02-21T00:12:50.655Z,97800.41
2024-02-21T00:15:17.284Z,97799.91
2024-02-21T00:17:45.538Z,97794.19
2024-02-21T00:20:12.393Z,97782.41
2024-02-21T00:22:39.120Z,97790.78
2024-02-21T00:25:06.106Z,97778.16
2024-02-21T00:27:33.410Z,97780.16
2024-02-21T00:30:00.268Z,97778.78
2024-02-21T00:32:27.245Z,97778.78
2024-02-21T00:34:53.867Z,97789.03
2024-02-21T00:37:20.572Z,97794.59
2024-02-21T00:39:47.209Z,97800.34
2024-02-21T00:42:13.804Z,97800.41
2024-02-21T00:44:40.437Z,97809.66
2024-02-21T00:47:07.063Z,97801.63
2024-02-21T00:49:33.924Z,97796.94
2024-02-21T00:52:00.747Z,97788.78
2024-02-21T00:54:31.959Z,97779.31
2024-02-21T00:57:03.403Z,97769.56
2024-02-21T00:59:30.045Z,97769.22
2024-02-21T01:01:56.731Z,97771.91
2024-02-21T01:04:25.832Z,97767.47
2024-02-21T01:06:52.467Z,97764.19
2024-02-21T01:09:19.093Z,97763.94
2024-02-21T01:11:45.747Z,97760.78
2024-02-21T01:14:12.757Z,97777.16
2024-02-21T01:16:39.279Z,97764.72
2024-02-21T01:19:05.981Z,97750.59
2024-02-21T01:21:32.652Z,97752.53
2024-02-21T01:23:59.577Z,97745.94
2024-02-21T01:26:26.321Z,97740.00
2024-02-21T01:28:53.363Z,97753.28
2024-02-21T01:31:20.262Z,97756.00
2024-02-21T01:33:46.916Z,97742.47
2024-02-21T01:36:13.628Z,97746.63
2024-02-21T01:38:40.302Z,97749.75
2024-02-21T01:41:07.326Z,97740.72
2024-02-21T01:43:33.993Z,97745.25
2024-02-21T01:46:00.824Z,97738.03
2024-02-21T01:48:27.583Z,97739.78
2024-02-21T01:50:55.836Z,97737.91
2024-02-21T01:53:26.409Z,97734.94
2024-02-21T01:55:54.524Z,97733.66
2024-02-21T01:58:21.795Z,97729.63
2024-02-21T02:00:49.389Z,97725.28
2024-02-21T02:03:19.073Z,97728.75
2024-02-21T02:05:47.386Z,97729.97
2024-02-21T02:08:18.432Z,97725.22
2024-02-21T02:10:45.809Z,97719.63
2024-02-21T02:13:13.126Z,97711.41
2024-02-21T02:15:44.300Z,97715.31
2024-02-21T02:18:11.728Z,97714.91
2024-02-21T02:20:39.114Z,97712.72
2024-02-21T02:23:11.930Z,97719.72
2024-02-21T02:25:39.779Z,97707.13
2024-02-21T02:28:09.614Z,97695.44
2024-02-21T02:30:37.464Z,97685.72
2024-02-21T02:33:07.256Z,97677.25
2024-02-21T02:35:36.558Z,97666.88
2024-02-21T02:38:04.664Z,97672.97
2024-02-21T02:40:32.322Z,97664.13
2024-02-21T02:42:59.020Z,97658.06
2024-02-21T02:45:27.529Z,97651.78
2024-02-21T02:47:55.679Z,97643.25
2024-02-21T02:50:22.553Z,97631.06
2024-02-21T02:52:49.739Z,97627.38
2024-02-21T02:55:16.593Z,97618.88
2024-02-21T02:57:43.713Z,97614.00
2024-02-21T03:00:12.764Z,97605.53
2024-02-21T03:02:44.260Z,97602.16
2024-02-21T03:05:16.958Z,97590.31
2024-02-21T03:07:44.910Z,97597.69
2024-02-21T03:10:12.616Z,97601.88
2024-02-21T03:12:39.822Z,97605.13
2024-02-21T03:15:07.057Z,97591.47
2024-02-21T03:17:35.605Z,97585.84
2024-02-21T03:20:15.153Z,97582.72
2024-02-21T03:22:42.698Z,97595.59
2024-02-21T03:25:12.324Z,97584.91
2024-02-21T03:27:39.687Z,97591.22
2024-02-21T03:30:06.722Z,97598.50
2024-02-21T03:32:33.522Z,97597.94
2024-02-21T03:35:00.490Z,97600.28
2024-02-21T03:37:27.307Z,97595.28
2024-02-21T03:39:54.041Z,97596.59
2024-02-21T03:42:20.675Z,97601.78
2024-02-21T03:44:47.353Z,97591.66
2024-02-21T03:47:14.014Z,97588.63
2024-02-21T03:49:40.882Z,97584.56
2024-02-21T03:52:07.776Z,97589.47
2024-02-21T03:54:34.402Z,97575.44
2024-02-21T03:57:01.029Z,97565.31
2024-02-21T03:59:27.621Z,97572.88
2024-02-21T04:01:54.663Z,97585.00
2024-02-21T04:04:21.884Z,97590.75
2024-02-21T04:06:52.525Z,97575.59
2024-02-21T04:09:19.647Z,97567.94
2024-02-21T04:11:46.568Z,97562.84
2024-02-21T04:14:13.379Z,97562.75
2024-02-21T04:16:41.003Z,97555.63
2024-02-21T04:19:08.125Z,97552.44
2024-02-21T04:21:36.303Z,97557.81
2024-02-21T04:24:04.674Z,97552.09
2024-02-21T04:26:31.796Z,97553.34
2024-02-21T04:28:58.560Z,97538.94
2024-02-21T04:31:25.922Z,97530.81
2024-02-21T04:33:53.155Z,97529.81
2024-02-21T04:36:19.972Z,97527.69
2024-02-21T04:38:46.685Z,97524.38
2024-02-21T04:41:13.342Z,97526.06
2024-02-21T04:43:40.011Z,97513.25
2024-02-21T04:46:06.654Z,97515.38
2024-02-21T04:48:33.367Z,97514.59
2024-02-21T04:51:00.184Z,97519.63
2024-02-21T04:53:26.848Z,97517.22
2024-02-21T04:55:53.547Z,97513.31
2024-02-21T04:58:20.259Z,97516.03
2024-02-21T05:00:46.947Z,97517.28
2024-02-21T05:03:13.830Z,97523.03
2024-02-21T05:05:40.614Z,97522.75
2024-02-21T05:08:07.442Z,97519.06
2024-02-21T05:10:34.174Z,97513.63
2024-02-21T05:13:00.936Z,97511.63
2024-02-21T05:15:27.802Z,97505.19
2024-02-21T05:17:55.561Z,97497.41
2024-02-21T05:20:22.443Z,97499.38
2024-02-21T05:22:49.205Z,97497.31
2024-02-21T05:25:15.894Z,97497.09
2024-02-21T05:27:42.590Z,97499.38
2024-02-21T05:30:09.556Z,97490.94
2024-02-21T05:32:36.132Z,97489.59
2024-02-21T05:35:03.006Z,97491.34
2024-02-21T05:37:29.616Z,97480.47
2024-02-21T05:39:56.252Z,97482.72
2024-02-21T05:42:22.919Z,97482.66
2024-02-21T05:44:49.524Z,97490.16
2024-02-21T05:47:16.780Z,97488.31
2024-02-21T05:49:43.896Z,97487.38
2024-02-21T05:52:10.911Z,97498.09
2024-02-21T05:54:38.882Z,97491.63
2024-02-21T05:57:05.508Z,97496.66
2024-02-21T05:59:32.285Z,97500.78
2024-02-21T06:01:59.599Z,97490.38
2024-02-21T06:04:26.558Z,97490.50
2024-02-21T06:06:53.296Z,97477.50
2024-02-21T06:09:19.994Z,97476.38
2024-02-21T06:11:47.674Z,97465.59
2024-02-21T06:14:14.535Z,97466.31
2024-02-21T06:16:41.280Z,97462.69
2024-02-21T06:19:10.303Z,97463.53
2024-02-21T06:21:38.300Z,97460.16
2024-02-21T06:24:05.481Z,97482.88
2024-02-21T06:26:32.073Z,97474.38
2024-02-21T06:29:01.154Z,97471.25
2024-02-21T06:31:29.164Z,97467.09
2024-02-21T06:33:56.109Z,97459.31
2024-02-21T06:36:22.782Z,97462.44
2024-02-21T06:38:49.516Z,97459.88
2024-02-21T06:41:22.280Z,97455.00
2024-02-21T06:43:49.305Z,97449.59
2024-02-21T06:46:30.358Z,97446.72
2024-02-21T06:48:58.507Z,97445.91
2024-02-21T06:51:28.233Z,97453.75
2024-02-21T06:53:55.369Z,97451.56
2024-02-21T06:56:28.191Z,97441.47
2024-02-21T06:58:55.012Z,97447.47
2024-02-21T07:01:22.245Z,97444.44
2024-02-21T07:03:48.947Z,97447.47
2024-02-21T07:06:15.713Z,97451.94
2024-02-21T07:08:42.501Z,97448.84
2024-02-21T07:11:09.316Z,97451.56
2024-02-21T07:13:36.002Z,97452.06
2024-02-21T07:16:02.644Z,97446.47
2024-02-21T07:18:29.348Z,97451.16
2024-02-21T07:20:56.957Z,97450.72
2024-02-21T07:23:24.235Z,97439.88
2024-02-21T07:25:50.913Z,97443.00
2024-02-21T07:28:18.177Z,97440.75
2024-02-21T07:30:44.948Z,97433.50
2024-02-21T07:33:11.563Z,97429.41
2024-02-21T07:35:43.152Z,97433.78
2024-02-21T07:38:13.759Z,97432.53
2024-02-21T07:40:40.793Z,97425.47
2024-02-21T07:43:07.443Z,97422.22
2024-02-21T07:45:34.114Z,97418.66
2024-02-21T07:48:00.888Z,97416.69
2024-02-21T07:50:28.201Z,97414.06
2024-02-21T07:52:55.183Z,97415.28
2024-02-21T07:55:21.776Z,97408.19
2024-02-21T07:57:48.492Z,97407.13
2024-02-21T08:00:21.143Z,97400.94
2024-02-21T08:02:49.821Z,97416.88
2024-02-21T08:05:16.576Z,97408.47
2024-02-21T08:07:43.909Z,97417.75
2024-02-21T08:10:10.709Z,97408.44
2024-02-21T08:12:37.444Z,97415.84
2024-02-21T08:15:05.089Z,97407.03
2024-02-21T08:17:31.927Z,97398.81
2024-02-21T08:19:58.559Z,97401.72
2024-02-21T08:22:27.125Z,97404.94
2024-02-21T08:24:54.882Z,97402.09
2024-02-21T08:27:21.698Z,97393.66
2024-02-21T08:29:48.383Z,97391.47
2024-02-21T08:32:15.063Z,97400.00
2024-02-21T08:34:41.733Z,97381.50
2024-02-21T08:37:09.310Z,97379.72
2024-02-21T08:39:36.012Z,97379.72
2024-02-21T08:42:02.697Z,97366.63
2024-02-21T08:44:30.019Z,97367.66
2024-02-21T08:46:57.537Z,97363.69
2024-02-21T08:49:25.926Z,97358.91
2024-02-21T08:51:53.406Z,97357.16
2024-02-21T08:54:20.076Z,97344.22
2024-02-21T08:56:46.697Z,97353.91
2024-02-21T08:59:13.413Z,97347.50
2024-02-21T09:01:40.291Z,97345.03
2024-02-21T09:04:07.124Z,97342.88
2024-02-21T09:06:35.061Z,97331.75
2024-02-21T09:09:02.058Z,97337.34
2024-02-21T09:11:29.346Z,97325.84
2024-02-21T09:13:56.357Z,97326.19
2024-02-21T09:16:24.431Z,97321.25
2024-02-21T09:18:51.447Z,97318.22
2024-02-21T09:21:18.083Z,97317.47
2024-02-21T09:23:46.259Z,97309.53
2024-02-21T09:26:17.205Z,97310.41
2024-02-21T09:28:46.540Z,97310.94
2024-02-21T09:31:13.526Z,97304.97
2024-02-21T09:33:40.400Z,97303.41
2024-02-21T09:36:07.466Z,97294.22
2024-02-21T09:38:34.196Z,97304.22
2024-02-21T09:41:11.661Z,97295.50
2024-02-21T09:43:41.309Z,97294.88
2024-02-21T09:46:12.479Z,97296.66
2024-02-21T09:48:47.949Z,97290.66
2024-02-21T09:51:16.241Z,97283.16
2024-02-21T09:53:51.801Z,97271.38
2024-02-21T09:56:25.212Z,97278.47
2024-02-21T09:58:52.007Z,97290.47
2024-02-21T10:01:29.201Z,97277.88
2024-02-21T10:04:00.971Z,97278.63
2024-02-21T10:06:27.986Z,97273.75
2024-02-21T10:08:55.413Z,97262.56
2024-02-21T10:11:25.898Z,97259.66
2024-02-21T10:14:03.567Z,97259.28
2024-02-21T10:16:30.309Z,97252.53
2024-02-21T10:18:56.979Z,97249.63
2024-02-21T10:21:23.697Z,97245.47
2024-02-21T10:23:51.574Z,97246.44
2024-02-21T10:26:20.356Z,97243.13
2024-02-21T10:28:49.430Z,97227.34
2024-02-21T10:31:27.037Z,97232.63
2024-02-21T10:34:04.351Z,97234.03
2024-02-21T10:36:31.497Z,97227.69
2024-02-21T10:38:58.202Z,97226.47
2024-02-21T10:41:25.816Z,97231.78
2024-02-21T10:43:55.156Z,97237.56
2024-02-21T10:46:23.990Z,97229.16
2024-02-21T10:49:12.071Z,97228.56
2024-02-21T10:51:44.086Z,97219.56
2024-02-21T10:54:38.386Z,97222.94
2024-02-21T10:57:05.386Z,97213.34
2024-02-21T10:59:33.579Z,97212.31
2024-02-21T11:02:00.766Z,97205.53
2024-02-21T11:04:29.193Z,97206.28
2024-02-21T11:06:56.487Z,97206.19
2024-02-21T11:09:32.839Z,97202.97
2024-02-21T11:12:00.328Z,97205.13
2024-02-21T11:14:28.892Z,97198.03
2024-02-21T11:16:57.246Z,97199.06
2024-02-21T11:19:27.087Z,97182.16
2024-02-21T11:21:55.692Z,97185.25
2024-02-21T11:24:35.866Z,97185.53
2024-02-21T11:27:22.775Z,97174.03
2024-02-21T11:29:59.800Z,97169.19
2024-02-21T11:32:28.613Z,97165.53
2024-02-21T11:35:05.005Z,97160.75
2024-02-21T11:37:38.135Z,97148.84
2024-02-21T11:40:07.798Z,97147.00
2024-02-21T11:42:34.496Z,97135.88
2024-02-21T11:45:01.751Z,97132.69
2024-02-21T11:47:30.322Z,97129.22
2024-02-21T11:49:57.188Z,97120.72
2024-02-21T11:52:27.724Z,97118.47
2024-02-21T11:54:56.043Z,97108.91
2024-02-21T11:57:23.056Z,97099.78
2024-02-21T11:59:52.704Z,97098.66
2024-02-21T12:02:20.671Z,97100.41
2024-02-21T12:04:47.603Z,97080.28
2024-02-21T12:07:15.560Z,97068.91
2024-02-21T12:09:43.564Z,97063.69
2024-02-21T12:12:10.204Z,97063.28
2024-02-21T12:14:37.074Z,97044.66
2024-02-21T12:17:08.208Z,97031.66
2024-02-21T12:19:35.726Z,97034.19
2024-02-21T12:22:06.914Z,97030.78
2024-02-21T12:24:33.882Z,97015.84
2024-02-21T12:27:01.212Z,97010.88
2024-02-21T12:29:28.603Z,97009.94
2024-02-21T12:31:56.283Z,97013.72
2024-02-21T12:34:31.693Z,97005.19
2024-02-21T12:37:05.736Z,97005.47
2024-02-21T12:39:33.513Z,97007.28
2024-02-21T12:42:00.525Z,97003.50
2024-02-21T12:44:27.888Z,96999.38
2024-02-21T12:46:56.162Z,97001.19
2024-02-21T12:49:23.495Z,96994.50
2024-02-21T12:51:50.568Z,96986.72
2024-02-21T12:54:17.287Z,96989.28
2024-02-21T12:56:43.912Z,96985.06
2024-02-21T12:59:10.668Z,96968.81
2024-02-21T13:01:39.245Z,96956.59
2024-02-21T13:04:06.572Z,96946.06
2024-02-21T13:06:33.527Z,96952.69
2024-02-21T13:09:02.610Z,96945.44
2024-02-21T13:11:32.598Z,96939.19
2024-02-21T13:13:59.878Z,96933.41
2024-02-21T13:16:27.953Z,96929.63
2024-02-21T13:18:55.189Z,96927.19
2024-02-21T13:21:22.305Z,96924.78
2024-02-21T13:23:49.115Z,96928.44
2024-02-21T13:26:16.665Z,96913.88
2024-02-21T13:28:46.024Z,96917.19
2024-02-21T13:31:13.026Z,96909.31
2024-02-21T13:33:41.112Z,96887.38
2024-02-21T13:36:07.985Z,96880.00
2024-02-21T13:38:34.758Z,96852.44
2024-02-21T13:41:01.931Z,96851.06
2024-02-21T13:43:29.405Z,96829.78
2024-02-21T13:46:02.412Z,96850.88
2024-02-21T13:48:30.648Z,96849.63
2024-02-21T13:50:57.556Z,96838.19
2024-02-21T13:53:24.216Z,96807.56
2024-02-21T13:55:50.947Z,96816.63
2024-02-21T13:58:18.548Z,96812.88
2024-02-21T14:00:45.286Z,96815.94
2024-02-21T14:03:12.022Z,96815.63
2024-02-21T14:05:43.044Z,96810.25
2024-02-21T14:08:10.180Z,96792.94
2024-02-21T14:10:38.349Z,96797.53
2024-02-21T14:13:05.402Z,96794.97
2024-02-21T14:15:32.072Z,96804.19
2024-02-21T14:17:58.867Z,96791.28
2024-02-21T14:20:25.644Z,96760.66
2024-02-21T14:22:52.477Z,96782.84
2024-02-21T14:25:19.152Z,96774.22
2024-02-21T14:27:45.836Z,96769.66
2024-02-21T14:30:12.687Z,96761.13
2024-02-21T14:32:44.321Z,96743.31
2024-02-21T14:35:11.158Z,96753.00
2024-02-21T14:37:38.391Z,96744.78
2024-02-21T14:40:05.547Z,96739.19
2024-02-21T14:42:32.147Z,96729.13
2024-02-21T14:45:05.387Z,96718.16
2024-02-21T14:47:33.308Z,96724.03
2024-02-21T14:50:00.845Z,96715.34
2024-02-21T14:52:29.009Z,96710.91
2024-02-21T14:54:56.125Z,96711.28
2024-02-21T14:57:23.005Z,96697.88
2024-02-21T14:59:51.251Z,96699.25
2024-02-21T15:02:18.415Z,96697.56
2024-02-21T15:04:45.194Z,96702.91
2024-02-21T15:07:11.778Z,96711.44
2024-02-21T15:09:38.429Z,96700.94
2024-02-21T15:12:05.383Z,96698.84
2024-02-21T15:14:32.046Z,96695.78
2024-02-21T15:16:58.723Z,96684.56
2024-02-21T15:19:25.479Z,96662.03
2024-02-21T15:21:52.218Z,96670.31
2024-02-21T15:24:18.872Z,96669.16
2024-02-21T15:26:45.519Z,96655.28
2024-02-21T15:29:12.329Z,96661.56
2024-02-21T15:31:39.032Z,96637.34
2024-02-21T15:34:05.898Z,96641.34
2024-02-21T15:36:32.662Z,96626.94
2024-02-21T15:39:00.432Z,96630.28
2024-02-21T15:41:27.596Z,96631.72
2024-02-21T15:43:55.087Z,96632.63
2024-02-21T15:46:21.820Z,96635.00
2024-02-21T15:48:50.510Z,96624.69
2024-02-21T15:51:17.371Z,96609.56
2024-02-21T15:53:46.296Z,96611.13
2024-02-21T15:56:16.207Z,96613.38
2024-02-21T15:58:44.358Z,96603.34
2024-02-21T16:01:12.827Z,96599.81
2024-02-21T16:03:41.921Z,96600.44
2024-02-21T16:06:10.263Z,96592.88
2024-02-21T16:08:42.241Z,96593.50
2024-02-21T16:11:18.789Z,96589.50
2024-02-21T16:13:47.786Z,96582.47
2024-02-21T16:16:14.745Z,96573.22
2024-02-21T16:18:41.428Z,96569.63
2024-02-21T16:21:08.504Z,96565.84
2024-02-21T16:23:36.162Z,96557.88
2024-02-21T16:26:02.883Z,96557.13
2024-02-21T16:28:29.613Z,96551.47
2024-02-21T16:30:57.865Z,96537.56
2024-02-21T16:33:26.165Z,96531.66
2024-02-21T16:35:53.121Z,96535.47
2024-02-21T16:38:19.833Z,96530.78
2024-02-21T16:40:46.578Z,96520.31
2024-02-21T16:43:13.222Z,96511.69
2024-02-21T16:45:39.950Z,96520.09
2024-02-21T16:48:07.300Z,96514.75
2024-02-21T16:50:41.873Z,96508.22
2024-02-21T16:53:16.177Z,96483.75
2024-02-21T16:55:43.007Z,96498.59
2024-02-21T16:58:10.170Z,96494.28
2024-02-21T17:00:40.280Z,96489.94
2024-02-21T17:03:07.350Z,96495.50
2024-02-21T17:05:37.666Z,96485.03
2024-02-21T17:08:08.396Z,96488.81
2024-02-21T17:10:36.089Z,96480.41
2024-02-21T17:13:05.429Z,96479.97
2024-02-21T17:15:32.068Z,96475.91
2024-02-21T17:17:59.863Z,96464.56
2024-02-21T17:20:26.792Z,96458.53
2024-02-21T17:22:53.385Z,96461.66
2024-02-21T17:25:20.206Z,96452.56
2024-02-21T17:27:46.793Z,96463.25
2024-02-21T17:30:13.615Z,96459.06
2024-02-21T17:32:40.217Z,96458.03
2024-02-21T17:35:07.267Z,96448.22
2024-02-21T17:37:36.880Z,96437.84
2024-02-21T17:40:05.661Z,96431.66
2024-02-21T17:42:32.360Z,96442.97
2024-02-21T17:44:58.971Z,96439.50
2024-02-21T17:47:25.849Z,96432.47
2024-02-21T17:49:52.593Z,96427.84
2024-02-21T17:52:19.296Z,96440.34
2024-02-21T17:54:45.983Z,96440.47
2024-02-21T17:57:12.589Z,96434.91
2024-02-21T17:59:43.979Z,96428.34
2024-02-21T18:02:10.784Z,96422.91
2024-02-21T18:04:38.017Z,96433.94
2024-02-21T18:07:06.023Z,96430.13
2024-02-21T18:09:32.770Z,96423.75
2024-02-21T18:11:59.516Z,96425.53
2024-02-21T18:14:26.049Z,96413.03
2024-02-21T18:16:52.774Z,96414.56
2024-02-21T18:19:23.566Z,96411.34
2024-02-21T18:21:50.327Z,96404.94
2024-02-21T18:24:18.037Z,96388.94
2024-02-21T18:26:44.678Z,96382.22
2024-02-21T18:29:11.580Z,96380.66
2024-02-21T18:31:39.318Z,96377.09
2024-02-21T18:34:06.079Z,96367.41
2024-02-21T18:36:32.739Z,96362.72
2024-02-21T18:38:59.367Z,96365.78
2024-02-21T18:41:27.791Z,96347.84
2024-02-21T18:43:55.208Z,96350.72
2024-02-21T18:46:22.271Z,96336.88
2024-02-21T18:48:49.019Z,96332.91
2024-02-21T18:51:19.028Z,96332.09
2024-02-21T18:53:45.705Z,96329.59
2024-02-21T18:56:13.702Z,96318.44
2024-02-21T18:58:44.051Z,96316.03
2024-02-21T19:01:11.797Z,96316.69
2024-02-21T19:03:39.120Z,96305.97
2024-02-21T19:06:06.060Z,96317.34
2024-02-21T19:08:32.692Z,96305.00
2024-02-21T19:10:59.487Z,96299.88
2024-02-21T19:13:26.340Z,96300.81
2024-02-21T19:15:52.987Z,96295.34
2024-02-21T19:18:21.369Z,96280.97
2024-02-21T19:20:48.720Z,96278.03
2024-02-21T19:23:15.510Z,96265.75
2024-02-21T19:25:43.687Z,96266.28
2024-02-21T19:28:13.688Z,96249.28
2024-02-21T19:30:40.919Z,96256.97
2024-02-21T19:33:13.807Z,96243.84
2024-02-21T19:35:41.216Z,96227.16
2024-02-21T19:38:10.134Z,96219.31
2024-02-21T19:40:36.912Z,96221.84
2024-02-21T19:43:03.636Z,96213.47
2024-02-21T19:45:31.079Z,96196.47
2024-02-21T19:47:59.596Z,96200.75
2024-02-21T19:50:33.650Z,96200.03
2024-02-21T19:53:01.283Z,96189.00
2024-02-21T19:55:28.429Z,96188.91
2024-02-21T19:57:55.558Z,96199.19
2024-02-21T20:00:22.562Z,96187.66
2024-02-21T20:02:49.873Z,96182.81
2024-02-21T20:05:17.446Z,96179.97
2024-02-21T20:07:44.921Z,96186.81
2024-02-21T20:10:12.877Z,96166.34
2024-02-21T20:12:40.451Z,96171.41
2024-02-21T20:15:08.112Z,96164.50
2024-02-21T20:17:35.039Z,96160.50
2024-02-21T20:20:01.745Z,96161.41
2024-02-21T20:22:28.606Z,96147.28
2024-02-21T20:24:55.825Z,96151.28
2024-02-21T20:27:22.454Z,96145.97
2024-02-21T20:29:49.122Z,96148.47
2024-02-21T20:32:15.939Z,96136.38
2024-02-21T20:34:42.930Z,96137.34
2024-02-21T20:37:12.305Z,96141.03
2024-02-21T20:39:39.018Z,96138.69
2024-02-21T20:42:05.931Z,96134.91
2024-02-21T20:44:32.617Z,96133.47
2024-02-21T20:46:59.315Z,96128.97
2024-02-21T20:49:27.461Z,96123.19
2024-02-21T20:51:55.264Z,96113.44
2024-02-21T20:54:21.862Z,96113.88
2024-02-21T20:56:48.516Z,96102.22
2024-02-21T20:59:20.168Z,96102.75
2024-02-21T21:01:54.183Z,96096.97
2024-02-21T21:04:28.777Z,96091.22
2024-02-21T21:06:55.764Z,96088.47
2024-02-21T21:09:22.802Z,96080.19
2024-02-21T21:11:49.602Z,96076.19
2024-02-21T21:14:16.308Z,96067.88
2024-02-21T21:16:43.103Z,96074.41
2024-02-21T21:19:10.452Z,96073.09
2024-02-21T21:21:37.298Z,96070.72
2024-02-21T21:24:04.297Z,96057.59
2024-02-21T21:26:31.614Z,96071.22
2024-02-21T21:28:58.708Z,96053.09
2024-02-21T21:31:26.809Z,96052.34
2024-02-21T21:33:54.522Z,96040.72
2024-02-21T21:36:24.293Z,96045.00
2024-02-21T21:38:54.736Z,96042.88
2024-02-21T21:41:22.059Z,96033.34
2024-02-21T21:43:48.898Z,96031.66
2024-02-21T21:46:16.252Z,96022.88
2024-02-21T21:48:43.754Z,96013.75
2024-02-21T21:51:10.865Z,96024.34
2024-02-21T21:53:37.564Z,96016.38
2024-02-21T21:56:05.615Z,96013.22
2024-02-21T21:58:36.176Z,96002.31
2024-02-21T22:01:03.434Z,95997.59
2024-02-21T22:03:30.145Z,95995.41
2024-02-21T22:05:56.875Z,95987.81
2024-02-21T22:08:23.552Z,95986.00
2024-02-21T22:10:52.158Z,95974.66
2024-02-21T22:13:19.702Z,95972.69
2024-02-21T22:15:47.811Z,95972.81
2024-02-21T22:18:14.662Z,95977.44
2024-02-21T22:20:41.811Z,95964.50
2024-02-21T22:23:10.615Z,95955.09
2024-02-21T22:25:37.684Z,95955.59
2024-02-21T22:28:04.440Z,95954.91
2024-02-21T22:30:31.154Z,95937.63
2024-02-21T22:32:57.842Z,95946.09
2024-02-21T22:35:24.492Z,95936.09
2024-02-21T22:37:52.022Z,95934.16
2024-02-21T22:40:18.968Z,95931.28
2024-02-21T22:42:45.927Z,95935.59
2024-02-21T22:45:12.557Z,95922.84
2024-02-21T22:47:39.267Z,95926.28
2024-02-21T22:50:06.233Z,95919.50
2024-02-21T22:52:33.158Z,95907.09
2024-02-21T22:54:59.874Z,95906.38
2024-02-21T22:57:26.506Z,95905.66
2024-02-21T22:59:53.169Z,95907.72
2024-02-21T23:02:19.924Z,95897.56
2024-02-21T23:04:46.787Z,95889.94
2024-02-21T23:07:13.384Z,95898.88
2024-02-21T23:09:39.972Z,95889.09
2024-02-21T23:12:07.069Z,95884.44
2024-02-21T23:14:34.057Z,95877.13
2024-02-21T23:17:00.755Z,95873.09
2024-02-21T23:19:27.736Z,95870.13
2024-02-21T23:21:54.891Z,95868.19
2024-02-21T23:24:21.505Z,95866.75
2024-02-21T23:26:48.990Z,95860.22
2024-02-21T23:29:15.653Z,95856.50
2024-02-21T23:31:42.975Z,95840.88
2024-02-21T23:34:10.429Z,95842.31
2024-02-21T23:36:37.249Z,95841.94
2024-02-21T23:39:04.161Z,95846.13
2024-02-21T23:41:30.859Z,95836.22
2024-02-21T23:44:00.280Z,95830.84
2024-02-21T23:46:27.465Z,95825.00
2024-02-21T23:48:57.973Z,95819.75
2024-02-21T23:51:24.650Z,95812.13
2024-02-21T23:53:51.296Z,95812.84
2024-02-21T23:56:18.112Z,95813.69
2024-02-21T23:58:45.129Z,95802.34
